Time;durP1;ratioP1;P1;durP2;ratioP2;P2;SDS_P1;SDS_P2;PMS_P1;PMS_P2;Temp;Humidity;BMP_temperature;BMP_pressure;BME280_temperature;BME280_humidity;BME280_pressure;Samples;Min_cycle;Max_cycle;Signal;HPM_P1;HPM_P2
2022/06/01 00:00:30;;;;;;;;;0.75;0.75;;;;;18.19;40.35;101132.63;4952595;28;45456;-71
2022/06/01 00:02:56;;;;;;;;;1.00;1.00;;;;;18.19;40.77;101143.44;4951997;28;45367;-70
2022/06/01 00:05:24;;;;;;;;;2.00;2.00;;;;;18.17;40.76;101146.22;4943438;28;45646;-70
2022/06/01 00:07:50;;;;;;;;;1.50;1.00;;;;;18.13;40.25;101137.44;4951629;28;45220;-71
2022/06/01 00:10:16;;;;;;;;;2.00;1.00;;;;;18.12;40.93;101135.69;4947810;28;45244;-70
2022/06/01 00:12:42;;;;;;;;;1.25;1.25;;;;;18.11;40.44;101138.50;4949967;28;46114;-70
2022/06/01 00:15:10;;;;;;;;;1.00;1.00;;;;;18.09;40.73;101137.69;4948387;28;45519;-70
2022/06/01 00:17:35;;;;;;;;;3.00;2.00;;;;;18.08;40.36;101142.25;4943108;28;45355;-70
2022/06/01 00:20:01;;;;;;;;;1.75;1.75;;;;;18.04;40.86;101137.97;4947556;28;45367;-70
2022/06/01 00:22:26;;;;;;;;;2.00;2.00;;;;;18.06;40.53;101138.75;4948418;28;45290;-70
2022/06/01 00:24:51;;;;;;;;;3.00;2.50;;;;;18.06;40.88;101146.88;4946836;28;45311;-70
2022/06/01 00:27:18;;;;;;;;;1.25;1.25;;;;;18.01;41.06;101140.84;4949865;28;45424;-70
2022/06/01 00:29:44;;;;;;;;;2.00;2.00;;;;;18.02;40.96;101147.97;4944108;28;45222;-70
2022/06/01 00:32:11;;;;;;;;;1.75;1.75;;;;;18.06;41.08;101152.28;4974858;28;46120;-70
2022/06/01 00:34:39;;;;;;;;;2.00;2.00;;;;;18.04;40.87;101145.19;4947182;28;45728;-70
2022/06/01 00:37:05;;;;;;;;;2.50;1.75;;;;;18.04;40.90;101150.59;4947400;28;45463;-70
2022/06/01 00:39:31;;;;;;;;;2.00;2.00;;;;;18.04;41.20;101142.50;4946996;28;45335;-70
2022/06/01 00:42:13;;;;;;;;;1.75;1.00;;;;;18.04;40.86;101140.69;4939810;28;46208;-70
2022/06/01 00:44:39;;;;;;;;;1.75;1.75;;;;;18.03;41.09;101146.19;4945924;28;45578;-70
2022/06/01 00:47:04;;;;;;;;;0.75;0.75;;;;;17.99;41.11;101137.34;4939905;28;45370;-70
2022/06/01 00:49:31;;;;;;;;;1.75;1.75;;;;;17.95;41.27;101133.97;4945532;28;45418;-71
2022/06/01 00:51:57;;;;;;;;;1.25;1.25;;;;;17.96;41.45;101137.56;4943047;28;45472;-70
2022/06/01 00:54:22;;;;;;;;;0.75;0.75;;;;;17.96;41.29;101142.94;4945621;28;45389;-70
2022/06/01 00:56:54;;;;;;;;;1.00;1.00;;;;;17.96;41.02;101137.56;4944862;28;45511;-70
2022/06/01 00:59:24;;;;;;;;;2.00;2.00;;;;;17.94;41.54;101144.84;4947086;28;45476;-70
2022/06/01 01:01:53;;;;;;;;;1.75;1.75;;;;;17.92;41.43;101150.34;4972312;28;45415;-70
2022/06/01 01:04:19;;;;;;;;;0.75;0.75;;;;;17.90;41.68;101154.09;4946859;28;46090;-70
2022/06/01 01:06:48;;;;;;;;;1.75;1.75;;;;;17.61;41.49;101105.28;4956548;28;45464;-70
2022/06/01 01:09:14;;;;;;;;;1.00;1.00;;;;;17.84;41.60;101149.00;4951207;28;45522;-70
2022/06/01 01:12:05;;;;;;;;;2.50;0.75;;;;;17.83;41.39;101155.38;4946091;28;45533;-70
2022/06/01 01:14:34;;;;;;;;;2.50;1.75;;;;;17.75;41.86;101135.06;4945939;28;45504;-70
2022/06/01 01:17:01;;;;;;;;;1.75;1.75;;;;;17.81;41.83;101146.47;4955828;28;45832;-70
2022/06/01 01:19:32;;;;;;;;;0.75;0.75;;;;;17.81;42.13;101146.47;4934583;28;45406;-70
2022/06/01 01:22:08;;;;;;;;;3.00;2.00;;;;;17.80;41.88;101142.91;4938906;28;45787;-70
2022/06/01 01:24:37;;;;;;;;;0.75;0.75;;;;;17.81;41.92;101138.38;4942963;28;45332;-70
2022/06/01 01:27:07;;;;;;;;;3.25;0.75;;;;;17.75;41.92;101135.06;4942311;28;45447;-70
2022/06/01 01:29:45;;;;;;;;;2.75;0.75;;;;;17.80;41.77;101142.91;4950011;28;45546;-70
2022/06/01 01:32:13;;;;;;;;;1.25;1.25;;;;;17.76;42.05;101136.81;4932722;28;46351;-70
2022/06/01 01:34:41;;;;;;;;;0.00;0.00;;;;;17.73;42.23;101145.06;4945922;28;45477;-70
2022/06/01 01:37:17;;;;;;;;;1.25;1.25;;;;;17.65;42.04;101133.84;4943611;28;45403;-70
2022/06/01 01:39:43;;;;;;;;;1.75;1.75;;;;;17.65;41.87;101128.44;4936957;28;45396;-72
2022/06/01 01:42:09;;;;;;;;;2.25;1.75;;;;;17.62;41.52;101139.41;4956606;28;46031;-71
2022/06/01 01:45:00;;;;;;;;;1.25;0.75;;;;;17.57;42.14;101136.09;4972589;28;45259;-71
2022/06/01 01:47:25;;;;;;;;;1.25;1.25;;;;;17.58;42.05;101143.25;4957055;28;45382;-71
2022/06/01 01:49:50;;;;;;;;;0.75;0.75;;;;;17.56;41.65;101142.47;4959158;28;45440;-71
2022/06/01 01:52:19;;;;;;;;;0.75;0.75;;;;;17.49;41.82;101124.84;4955823;28;45693;-71
2022/06/01 01:54:48;;;;;;;;;0.50;0.50;;;;;17.36;42.05;101105.78;4959002;28;45332;-71
2022/06/01 01:57:17;;;;;;;;;1.25;1.25;;;;;17.56;42.13;101142.47;4938872;28;45449;-71
2022/06/01 01:59:58;;;;;;;;;0.75;0.75;;;;;17.55;42.24;101138.88;4923288;28;45428;-71
2022/06/01 02:02:35;;;;;;;;;1.25;1.25;;;;;17.48;42.33;101126.69;4952084;28;47196;-71
2022/06/01 02:08:18;;;;;;;;;1.50;1.50;;;;;17.46;42.16;101109.72;4932419;28;45247;-71
2022/06/01 02:13:30;;;;;;;;;1.50;1.50;;;;;17.46;42.60;101108.81;4937464;28;45870;-71
2022/06/01 02:15:59;;;;;;;;;1.00;1.00;;;;;17.42;42.57;101105.41;4941158;28;45372;-71
2022/06/01 02:18:31;;;;;;;;;1.00;0.50;;;;;17.40;42.71;101102.81;4941495;28;45318;-71
2022/06/01 02:21:06;;;;;;;;;1.00;1.00;;;;;17.48;42.46;101117.72;4942403;28;45198;-71
2022/06/01 02:23:32;;;;;;;;;1.75;1.75;;;;;17.44;42.68;101110.72;4933058;28;47100;-71
2022/06/01 02:26:00;;;;;;;;;1.50;0.75;;;;;17.44;42.48;101111.63;4942320;28;45178;-71
2022/06/01 02:28:26;;;;;;;;;0.75;0.75;;;;;17.45;42.49;101110.66;4943193;28;45364;-71
2022/06/01 02:30:54;;;;;;;;;1.00;0.75;;;;;17.43;42.56;101107.16;4933160;28;45400;-71
2022/06/01 02:33:23;;;;;;;;;2.00;1.50;;;;;17.43;42.49;101109.00;4942600;28;45422;-70
2022/06/01 02:35:58;;;;;;;;;2.00;2.00;;;;;17.40;42.71;101104.63;4944868;28;45685;-71
2022/06/01 02:38:29;;;;;;;;;1.50;1.50;;;;;17.34;42.84;101107.66;4995965;28;45394;-71
2022/06/01 02:40:55;;;;;;;;;2.75;1.50;;;;;17.40;42.64;101108.19;4954131;28;45154;-71
2022/06/01 02:43:20;;;;;;;;;2.50;2.00;;;;;17.34;42.93;101097.75;4958039;28;47942;-71
2022/06/01 02:45:45;;;;;;;;;2.50;1.50;;;;;17.31;42.85;101091.66;4945952;28;45364;-71
2022/06/01 02:48:11;;;;;;;;;1.75;1.75;;;;;17.36;42.92;101108.47;4957616;28;45185;-71
2022/06/01 02:50:37;;;;;;;;;0.75;0.75;;;;;17.36;42.98;101101.25;4947174;28;45475;-71
2022/06/01 02:53:05;;;;;;;;;1.25;1.25;;;;;17.32;43.13;101096.94;4948915;28;45383;-71
2022/06/01 02:55:31;;;;;;;;;1.00;1.00;;;;;17.32;43.11;101102.34;4972330;28;45402;-71
2022/06/01 02:57:57;;;;;;;;;1.00;0.50;;;;;17.33;42.98;101104.09;4950018;28;45247;-70
2022/06/01 03:00:26;;;;;;;;;0.50;0.50;;;;;17.26;43.29;101091.91;4956636;28;45646;-70
2022/06/01 03:02:55;;;;;;;;;1.00;1.00;;;;;17.29;43.34;101090.84;4944714;28;47116;-71
2022/06/01 03:05:24;;;;;;;;;0.50;0.50;;;;;17.27;43.31;101092.78;4949450;28;45558;-70
2022/06/01 03:07:50;;;;;;;;;0.75;0.75;;;;;17.25;42.92;101090.16;4958700;28;45153;-71
2022/06/01 03:10:16;;;;;;;;;1.00;1.00;;;;;17.23;43.07;101092.94;4958844;28;45315;-71
2022/06/01 03:12:42;;;;;;;;;3.00;1.50;;;;;17.22;43.13;101099.31;4940679;28;47219;-71
2022/06/01 03:15:10;;;;;;;;;0.50;0.50;;;;;17.22;43.37;101101.13;4947640;28;45261;-71
2022/06/01 03:17:36;;;;;;;;;2.75;2.25;;;;;17.18;43.52;101092.31;4943937;28;45355;-71
2022/06/01 03:20:07;;;;;;;;;1.50;1.50;;;;;17.22;43.60;101111.91;4946536;28;47772;-71
2022/06/01 03:22:34;;;;;;;;;1.25;1.25;;;;;17.16;43.19;101101.47;4941591;28;46844;-71
2022/06/01 03:24:59;;;;;;;;;2.00;1.25;;;;;17.17;43.67;101103.19;4940126;28;45535;-71
2022/06/01 03:27:24;;;;;;;;;2.50;2.50;;;;;17.16;43.56;101099.63;4938632;28;45384;-71
2022/06/01 03:29:50;;;;;;;;;2.50;2.50;;;;;17.15;43.29;101102.41;4938474;28;45458;-71
2022/06/01 03:32:15;;;;;;;;;1.50;1.25;;;;;17.17;43.55;101112.19;4939485;28;45443;-71
2022/06/01 03:34:40;;;;;;;;;1.25;1.25;;;;;17.13;43.44;101109.72;4935141;28;45278;-71
2022/06/01 03:37:06;;;;;;;;;1.50;1.50;;;;;17.14;43.44;101108.75;4930142;28;45552;-71
2022/06/01 03:39:31;;;;;;;;;1.50;1.50;;;;;17.13;43.43;101117.81;4942199;28;45450;-71
2022/06/01 03:41:59;;;;;;;;;4.50;2.50;;;;;17.12;43.55;101121.47;4956945;28;46089;-71
2022/06/01 03:47:09;;;;;;;;;1.50;1.50;;;;;17.10;43.53;101126.06;4958081;28;45300;-71
2022/06/01 03:49:35;;;;;;;;;3.00;3.00;;;;;17.09;43.86;101117.13;4957429;28;45355;-71
2022/06/01 03:52:01;;;;;;;;;1.75;1.50;;;;;17.12;43.55;101124.16;4956484;28;48301;-71
2022/06/01 03:54:27;;;;;;;;;1.75;1.50;;;;;17.06;43.74;101119.97;4955330;28;45723;-71
2022/06/01 03:56:53;;;;;;;;;2.50;2.50;;;;;17.00;44.00;101117.59;4957790;28;45245;-71
2022/06/01 03:59:18;;;;;;;;;3.00;1.50;;;;;17.06;44.07;101133.47;4956708;28;45347;-71
2022/06/01 04:01:43;;;;;;;;;3.00;3.00;;;;;17.02;44.46;101129.16;4957150;28;46075;-71
2022/06/01 04:04:09;;;;;;;;;4.00;3.00;;;;;17.04;44.69;101130.84;4955906;28;45300;-71
2022/06/01 04:06:34;;;;;;;;;3.25;2.75;;;;;16.94;44.33;101118.81;4954781;28;45395;-71
2022/06/01 04:08:59;;;;;;;;;3.50;3.50;;;;;16.98;44.87;101122.19;4956218;28;45373;-71
2022/06/01 04:11:25;;;;;;;;;3.25;3.25;;;;;16.99;44.48;101135.59;4954799;28;47039;-71
2022/06/01 04:13:50;;;;;;;;;3.00;3.00;;;;;16.90;44.76;101119.91;4943970;28;45363;-72
2022/06/01 04:16:18;;;;;;;;;3.75;3.75;;;;;16.92;44.65;101123.38;4943783;28;45460;-71
2022/06/01 04:18:45;;;;;;;;;4.25;3.50;;;;;16.88;44.93;101124.50;4931867;28;45548;-71
2022/06/01 04:21:11;;;;;;;;;3.00;3.00;;;;;16.88;44.84;101124.50;4938838;28;47856;-71
2022/06/01 04:23:37;;;;;;;;;4.00;4.00;;;;;16.93;45.04;101135.91;4949989;28;45446;-71
2022/06/01 04:26:02;;;;;;;;;2.75;2.75;;;;;16.92;44.82;101141.41;4950802;28;45259;-71
2022/06/01 04:28:28;;;;;;;;;4.00;4.00;;;;;16.86;45.01;101139.91;4955427;28;45185;-72
2022/06/01 04:30:53;;;;;;;;;6.00;4.00;;;;;16.90;45.16;101143.31;4944828;28;45419;-71
2022/06/01 04:33:19;;;;;;;;;3.75;3.75;;;;;16.80;45.45;101140.19;4941038;28;45685;-71
2022/06/01 04:35:44;;;;;;;;;4.75;4.75;;;;;16.85;45.38;101162.41;4950469;28;45509;-71
2022/06/01 04:38:12;;;;;;;;;4.00;4.00;;;;;16.83;45.67;101153.50;4936110;28;45423;-71
2022/06/01 04:40:51;;;;;;;;;3.50;3.50;;;;;16.82;45.16;101163.44;4939691;28;45401;-71
2022/06/01 04:43:22;;;;;;;;;3.75;3.75;;;;;16.79;45.41;101155.50;4931270;28;45581;-71
2022/06/01 04:45:51;;;;;;;;;4.00;4.00;;;;;16.79;45.70;101154.59;4939179;28;45395;-71
2022/06/01 04:48:17;;;;;;;;;5.50;5.50;;;;;16.81;45.92;101168.91;4939374;28;45602;-71
2022/06/01 04:50:43;;;;;;;;;4.75;4.75;;;;;16.73;45.89;101155.81;4939181;28;46301;-72
2022/06/01 04:53:11;;;;;;;;;4.00;4.00;;;;;16.74;45.90;101160.25;4939439;28;45394;-71
2022/06/01 04:55:36;;;;;;;;;4.00;4.00;;;;;16.81;46.47;101168.91;4942362;28;45320;-71
2022/06/01 04:58:01;;;;;;;;;5.00;3.00;;;;;16.80;45.73;101177.94;4938188;28;45317;-71
2022/06/01 05:00:27;;;;;;;;;4.00;4.00;;;;;16.81;45.93;101176.97;4936234;28;48148;-72
2022/06/01 05:02:52;;;;;;;;;5.00;4.75;;;;;16.76;46.37;101173.66;4954974;28;45414;-71
2022/06/01 05:05:17;;;;;;;;;4.00;4.00;;;;;16.78;45.93;101177.13;4954069;28;45553;-71
2022/06/01 05:07:43;;;;;;;;;4.00;4.00;;;;;16.75;46.28;101172.75;4954991;28;45331;-71
2022/06/01 05:10:08;;;;;;;;;6.00;5.00;;;;;16.80;46.16;101194.09;4954430;28;45315;-72
2022/06/01 05:12:34;;;;;;;;;2.00;2.00;;;;;16.80;46.07;101192.25;4956317;28;45305;-72
2022/06/01 05:15:00;;;;;;;;;4.25;4.25;;;;;16.79;46.44;101201.31;4951158;28;45253;-71
2022/06/01 05:17:25;;;;;;;;;5.75;4.00;;;;;16.78;46.52;101194.19;4922832;28;45376;-71
2022/06/01 05:19:51;;;;;;;;;5.75;5.00;;;;;16.76;46.82;101190.69;4941864;28;47051;-71
2022/06/01 05:22:16;;;;;;;;;4.25;4.25;;;;;16.77;46.61;101189.75;4941240;28;45224;-71
2022/06/01 05:24:41;;;;;;;;;7.00;6.00;;;;;16.79;46.83;101185.16;4943445;28;45173;-71
2022/06/01 05:27:07;;;;;;;;;4.50;4.00;;;;;16.72;46.66;101169.34;4936505;28;45269;-71
2022/06/01 05:29:34;;;;;;;;;6.25;4.50;;;;;16.80;46.75;101183.31;4936544;28;47213;-71
2022/06/01 05:31:59;;;;;;;;;8.50;6.00;;;;;16.81;46.73;101174.28;4938421;28;45431;-71
2022/06/01 05:34:24;;;;;;;;;5.75;5.25;;;;;16.85;46.44;101183.97;4936749;28;45274;-71
2022/06/01 05:36:49;;;;;;;;;6.50;6.00;;;;;16.81;46.67;101175.16;4953237;28;45762;-70
2022/06/01 05:39:16;;;;;;;;;5.25;5.00;;;;;16.87;46.63;101183.91;4935026;28;45409;-70
2022/06/01 05:41:41;;;;;;;;;5.50;5.50;;;;;16.89;47.04;101184.69;4941346;28;45925;-70
2022/06/01 05:44:07;;;;;;;;;6.25;6.00;;;;;16.89;46.61;101182.00;4939219;28;45411;-70
2022/06/01 05:46:35;;;;;;;;;5.00;5.00;;;;;16.90;46.69;101186.44;4946677;28;45303;-70
2022/06/01 05:49:02;;;;;;;;;5.00;5.00;;;;;16.83;46.41;101172.38;4930354;28;47092;-70
2022/06/01 05:51:27;;;;;;;;;5.50;5.50;;;;;16.84;46.48;101166.03;4924776;28;45186;-70
2022/06/01 05:53:52;;;;;;;;;4.50;4.50;;;;;16.84;46.69;101163.34;4940439;28;45409;-70
2022/06/01 05:56:18;;;;;;;;;2.75;2.75;;;;;16.82;46.22;101173.31;4953562;28;45216;-70
2022/06/01 05:58:43;;;;;;;;;4.75;3.75;;;;;16.84;46.48;101166.03;4959974;28;46295;-70
2022/06/01 06:01:09;;;;;;;;;3.75;3.75;;;;;16.83;46.69;101170.53;4948001;28;45711;-70
2022/06/01 06:03:34;;;;;;;;;5.00;4.00;;;;;16.90;46.32;101179.22;4946110;28;45333;-70
2022/06/01 06:06:14;;;;;;;;;3.75;2.75;;;;;16.86;46.59;101180.34;4948786;28;45360;-70
2022/06/01 06:08:42;;;;;;;;;3.00;3.00;;;;;16.87;46.29;101181.22;4944905;28;46890;-70
2022/06/01 06:11:07;;;;;;;;;3.00;3.00;;;;;16.85;46.30;101182.16;4954284;28;45427;-70
2022/06/01 06:13:34;;;;;;;;;3.00;3.00;;;;;16.91;46.26;101191.75;4941241;28;45439;-70
2022/06/01 06:15:59;;;;;;;;;2.75;2.75;;;;;16.93;45.95;101192.53;4944349;28;45540;-70
2022/06/01 06:18:25;;;;;;;;;5.50;2.25;;;;;16.94;45.95;101188.03;4972359;28;47379;-70
2022/06/01 06:20:50;;;;;;;;;2.00;2.00;;;;;16.93;45.83;101176.38;4942223;28;45245;-70
2022/06/01 06:23:16;;;;;;;;;2.00;2.00;;;;;16.86;45.97;101169.56;4939377;28;45575;-70
2022/06/01 06:25:42;;;;;;;;;2.50;1.50;;;;;16.94;45.63;101180.81;4945483;28;45389;-70
2022/06/01 06:28:08;;;;;;;;;4.00;3.75;;;;;16.93;45.83;101187.16;4941913;28;47114;-70
2022/06/01 06:30:36;;;;;;;;;3.50;2.25;;;;;16.97;45.72;101186.06;4944620;28;45581;-70
2022/06/01 06:33:01;;;;;;;;;2.75;2.75;;;;;16.93;45.38;101183.59;4976797;28;45428;-70
2022/06/01 06:35:26;;;;;;;;;1.00;1.00;;;;;16.83;45.49;101170.53;4942204;28;45229;-70
2022/06/01 06:37:52;;;;;;;;;4.00;2.00;;;;;16.93;45.51;101191.69;4946447;28;46115;-70
2022/06/01 06:40:17;;;;;;;;;2.50;2.25;;;;;16.94;45.80;101196.09;4946986;28;45604;-70
2022/06/01 06:42:43;;;;;;;;;2.75;2.00;;;;;16.95;45.81;101193.34;4964597;28;45360;-70
2022/06/01 06:45:09;;;;;;;;;4.00;3.00;;;;;16.97;45.45;101193.25;4947640;28;45451;-70
2022/06/01 06:47:34;;;;;;;;;1.00;1.00;;;;;16.99;45.42;101202.13;4954084;28;46809;-70
2022/06/01 06:50:02;;;;;;;;;2.50;1.25;;;;;16.96;45.45;101203.19;4955323;28;45269;-70
2022/06/01 06:52:28;;;;;;;;;1.50;1.50;;;;;16.90;45.78;101198.09;4950662;28;48598;-70
2022/06/01 06:54:53;;;;;;;;;4.00;2.00;;;;;16.91;45.27;101205.25;4939937;28;45425;-70
2022/06/01 06:57:19;;;;;;;;;1.50;1.50;;;;;16.93;45.39;101208.72;4943629;28;46784;-70
2022/06/01 06:59:44;;;;;;;;;1.50;1.50;;;;;16.93;45.31;101206.03;4953291;28;45434;-70
2022/06/01 07:02:10;;;;;;;;;1.75;1.75;;;;;16.99;45.00;101208.41;4955871;28;45268;-70
2022/06/01 07:04:36;;;;;;;;;1.00;1.00;;;;;17.06;45.03;101200.00;4956713;28;45521;-70
2022/06/01 07:07:02;;;;;;;;;2.00;1.75;;;;;17.13;44.98;101212.22;4953655;28;46870;-70
2022/06/01 07:09:27;;;;;;;;;1.50;1.50;;;;;17.12;44.93;101203.22;4957353;28;45291;-70
2022/06/01 07:11:52;;;;;;;;;3.00;3.00;;;;;17.22;45.34;101207.22;4945310;28;45331;-70
2022/06/01 07:14:18;;;;;;;;;1.50;1.50;;;;;17.25;45.21;101210.69;4955547;28;45621;-70
2022/06/01 07:16:43;;;;;;;;;1.25;1.25;;;;;17.25;44.79;101208.00;4951111;28;45404;-70
2022/06/01 07:19:08;;;;;;;;;1.25;0.75;;;;;17.31;44.62;101205.84;4946350;28;45340;-69
2022/06/01 07:21:36;;;;;;;;;1.00;1.00;;;;;17.36;44.50;101211.00;4949381;28;45708;-69
2022/06/01 07:24:05;;;;;;;;;1.50;1.25;;;;;17.33;44.39;101203.94;4955253;28;45543;-69
2022/06/01 07:26:34;;;;;;;;;2.75;2.75;;;;;17.31;44.32;101210.38;4954271;28;45569;-69
2022/06/01 07:29:00;;;;;;;;;1.75;1.00;;;;;17.24;43.86;101196.34;4948621;28;45601;-70
2022/06/01 07:31:25;;;;;;;;;1.50;1.50;;;;;17.24;44.17;101212.53;4941332;28;45475;-69
2022/06/01 07:33:51;;;;;;;;;2.25;1.25;;;;;17.22;44.67;101207.22;4951834;28;45431;-69
2022/06/01 07:36:17;;;;;;;;;1.75;1.75;;;;;17.29;44.57;101205.06;4944455;28;45380;-70
2022/06/01 07:44:22;;;;;;;;;2.75;2.00;;;;;17.48;44.60;101207.63;4935204;28;45413;-69
2022/06/01 07:46:48;;;;;;;;;1.50;1.50;;;;;17.54;44.33;101206.44;4934869;28;46203;-69
2022/06/01 07:49:15;;;;;;;;;1.75;1.75;;;;;17.66;43.82;101219.28;4946053;28;45474;-69
2022/06/01 07:51:41;;;;;;;;;1.25;1.25;;;;;17.68;44.18;101213.78;4931897;28;46044;-69
2022/06/01 07:54:07;;;;;;;;;1.00;1.00;;;;;17.79;43.73;101219.44;4940356;28;45426;-69
2022/06/01 07:56:33;;;;;;;;;2.25;1.75;;;;;17.85;43.37;101218.25;4956927;28;45418;-69
2022/06/01 07:58:59;;;;;;;;;2.00;2.00;;;;;17.93;44.06;101221.44;4942445;28;45435;-69
2022/06/01 08:01:27;;;;;;;;;4.00;1.75;;;;;17.93;43.91;101211.50;4954774;28;45485;-70
2022/06/01 08:03:56;;;;;;;;;1.75;1.75;;;;;17.99;43.94;101214.81;4951432;28;45611;-70
2022/06/01 08:06:23;;;;;;;;;2.50;2.00;;;;;18.09;44.13;101216.03;4956230;28;45224;-70
2022/06/01 08:08:48;;;;;;;;;2.00;2.00;;;;;18.13;44.10;101220.31;4947155;28;45412;-68
2022/06/01 08:11:14;;;;;;;;;3.00;3.00;;;;;18.14;43.91;101203.13;4956451;28;45420;-71
2022/06/01 08:13:39;;;;;;;;;1.75;1.75;;;;;18.24;43.94;101208.91;4953237;28;45322;-72
2022/06/01 08:16:05;;;;;;;;;1.75;1.75;;;;;18.31;43.89;101211.16;4946899;28;45414;-72
2022/06/01 08:18:30;;;;;;;;;1.50;1.50;;;;;18.35;43.56;101211.88;4939632;28;45316;-72
2022/06/01 08:20:55;;;;;;;;;2.50;2.50;;;;;18.44;43.23;101216.75;4945126;28;45498;-72
2022/06/01 08:23:23;;;;;;;;;4.00;3.25;;;;;18.52;43.55;101224.41;4942038;28;45497;-72
2022/06/01 08:25:49;;;;;;;;;3.75;2.75;;;;;18.55;43.68;101212.53;4941353;28;45666;-72
2022/06/01 08:28:15;;;;;;;;;1.25;1.25;;;;;18.54;42.54;101208.09;4947838;28;45525;-72
2022/06/01 08:30:41;;;;;;;;;2.75;2.75;;;;;18.49;42.65;101211.94;4947959;28;45284;-72
2022/06/01 08:33:06;;;;;;;;;3.00;2.00;;;;;18.49;43.24;101211.06;4946665;28;45442;-72
2022/06/01 08:35:35;;;;;;;;;2.50;1.00;;;;;18.49;43.35;101208.34;4947723;28;46376;-72
2022/06/01 08:38:01;;;;;;;;;3.00;3.00;;;;;18.54;43.59;101208.94;4948228;28;45417;-72
2022/06/01 08:40:48;;;;;;;;;3.25;3.25;;;;;18.54;42.87;101202.69;4946787;28;45354;-72
2022/06/01 08:43:16;;;;;;;;;3.00;3.00;;;;;18.59;43.24;101209.53;4950092;28;45592;-74
2022/06/01 08:45:47;;;;;;;;;2.75;1.75;;;;;18.63;43.40;101204.84;4924871;28;46414;-71
2022/06/01 08:48:19;;;;;;;;;2.75;2.00;;;;;18.70;42.91;101207.09;4945266;28;45523;-71
2022/06/01 08:50:44;;;;;;;;;2.00;2.00;;;;;18.74;43.12;101210.47;4937097;28;45545;-71
2022/06/01 08:53:10;;;;;;;;;1.25;1.25;;;;;18.83;42.85;101212.69;4949140;28;45466;-70
2022/06/01 08:55:58;;;;;;;;;2.00;2.00;;;;;18.89;43.00;101214.13;4933995;28;45474;-71
2022/06/01 08:58:36;;;;;;;;;2.25;2.00;;;;;18.87;42.99;101198.00;4938197;28;45373;-71
2022/06/01 09:01:24;;;;;;;;;1.75;1.75;;;;;18.95;42.58;101204.81;4932292;28;45373;-71
2022/06/01 09:04:12;;;;;;;;;1.25;1.25;;;;;19.01;42.53;101210.72;4935678;28;46032;-71
2022/06/01 09:06:49;;;;;;;;;3.75;3.25;;;;;19.06;42.33;101215.81;4931570;28;45545;-71
2022/06/01 09:09:24;;;;;;;;;3.00;3.00;;;;;19.06;43.07;101205.00;4931063;28;45303;-71
2022/06/01 09:11:49;;;;;;;;;4.50;3.00;;;;;19.12;42.34;101220.88;4957403;28;45289;-71
2022/06/01 09:14:26;;;;;;;;;2.25;2.25;;;;;19.11;42.28;101212.84;4955675;28;45452;-71
2022/06/01 09:16:55;;;;;;;;;3.00;2.50;;;;;19.15;43.01;101217.97;4943265;28;45350;-71
2022/06/01 09:19:26;;;;;;;;;1.00;1.00;;;;;19.11;42.14;101210.13;4949873;28;45712;-71
2022/06/01 09:24:48;;;;;;;;;1.00;1.00;;;;;19.18;42.01;101211.53;4935958;28;45440;-71
2022/06/01 09:27:15;;;;;;;;;1.75;1.75;;;;;19.21;41.87;101224.84;4956704;28;46332;-71
2022/06/01 09:29:49;;;;;;;;;2.25;1.00;;;;;19.24;42.00;101216.53;4944074;28;45448;-71
2022/06/01 09:32:41;;;;;;;;;1.00;1.00;;;;;19.28;41.63;101209.09;4954176;28;45331;-71
2022/06/01 09:35:11;;;;;;;;;2.75;2.00;;;;;19.31;41.16;101225.16;4939499;28;45462;-70
2022/06/01 09:37:41;;;;;;;;;1.00;1.00;;;;;19.34;41.31;101224.97;4952021;28;46350;-72
2022/06/01 09:40:27;;;;;;;;;1.75;1.00;;;;;19.36;40.60;101215.81;4943978;28;45466;-74
2022/06/01 09:42:54;;;;;;;;;2.50;2.00;;;;;19.30;41.01;101212.63;4935267;28;45365;-72
2022/06/01 09:45:53;;;;;;;;;1.75;1.75;;;;;19.35;40.85;101213.19;4936706;28;45629;-72
2022/06/01 09:48:35;;;;;;;;;2.50;1.50;;;;;19.42;40.55;101228.09;4941205;28;45409;-72
2022/06/01 09:51:01;;;;;;;;;2.00;2.00;;;;;19.44;41.28;101221.63;4935658;28;45512;-71
2022/06/01 09:53:34;;;;;;;;;3.00;2.00;;;;;19.43;41.24;101210.88;4938159;28;45360;-71
2022/06/01 09:56:03;;;;;;;;;2.00;2.00;;;;;19.51;40.98;101218.50;4936270;28;45438;-72
2022/06/01 10:06:52;;;;;;;;;1.00;1.00;;;;;19.62;40.54;101211.47;4966946;28;45304;-71
2022/06/01 10:09:25;;;;;;;;;2.75;2.25;;;;;19.61;40.32;101203.44;4947802;28;47028;-71
2022/06/01 10:11:54;;;;;;;;;2.00;2.00;;;;;19.66;40.43;101206.72;4940169;28;45543;-72
2022/06/01 10:14:21;;;;;;;;;2.25;2.25;;;;;19.68;40.29;101215.63;4939790;28;45351;-70
2022/06/01 10:17:11;;;;;;;;;3.00;3.00;;;;;19.70;40.63;101216.41;4941144;28;45328;-71
2022/06/01 10:19:37;;;;;;;;;1.25;1.25;;;;;19.71;40.57;101206.44;4943781;28;47018;-70
2022/06/01 10:22:23;;;;;;;;;2.50;2.00;;;;;19.72;41.05;101203.63;4952114;28;45353;-70
2022/06/01 10:25:02;;;;;;;;;2.25;2.25;;;;;19.72;40.61;101195.50;4935294;28;45463;-70
2022/06/01 10:27:35;;;;;;;;;3.00;2.00;;;;;19.74;40.52;101196.25;4941866;28;45404;-70
2022/06/01 10:30:18;;;;;;;;;2.00;2.00;;;;;19.81;40.46;101207.59;4949896;28;46196;-70
2022/06/01 10:32:50;;;;;;;;;2.00;2.00;;;;;19.82;40.60;101195.81;4947515;28;45477;-70
2022/06/01 10:35:31;;;;;;;;;2.00;2.00;;;;;19.84;40.30;101195.72;4956645;28;45292;-71
2022/06/01 10:37:59;;;;;;;;;2.50;2.50;;;;;19.87;40.57;101200.94;4938257;28;45908;-71
2022/06/01 10:40:36;;;;;;;;;3.00;1.50;;;;;19.89;40.52;101190.88;4963048;28;45922;-70
2022/06/01 10:43:24;;;;;;;;;1.00;1.00;;;;;19.88;39.64;101200.84;4941923;28;45453;-71
2022/06/01 10:45:50;;;;;;;;;1.25;1.25;;;;;19.94;39.44;101207.69;4940322;28;45172;-70
2022/06/01 10:48:33;;;;;;;;;2.00;1.00;;;;;19.93;39.45;101209.56;4943431;28;45457;-70
2022/06/01 10:51:19;;;;;;;;;1.00;1.00;;;;;19.95;39.23;101194.06;4936730;28;46137;-70
2022/06/01 10:53:57;;;;;;;;;1.25;1.25;;;;;19.99;39.46;101195.59;4943908;28;45470;-71
2022/06/01 10:56:24;;;;;;;;;2.50;2.50;;;;;19.98;39.29;101190.28;4946287;28;45435;-71
2022/06/01 10:58:52;;;;;;;;;1.75;1.75;;;;;20.00;39.25;101185.63;4936012;28;45497;-71
2022/06/01 11:01:41;;;;;;;;;3.00;1.75;;;;;20.03;39.83;101193.56;4945257;28;48397;-73
2022/06/01 11:04:37;;;;;;;;;3.00;2.00;;;;;20.08;39.41;101194.13;4925610;28;45449;-73
2022/06/01 11:07:22;;;;;;;;;1.50;1.50;;;;;20.07;38.80;101170.72;4940872;28;45380;-72
2022/06/01 11:10:12;;;;;;;;;1.75;1.75;;;;;20.12;38.82;101181.25;4936837;28;45621;-73
2022/06/01 11:12:59;;;;;;;;;2.25;1.25;;;;;20.15;39.06;101178.34;4946303;28;45512;-73
2022/06/01 11:15:25;;;;;;;;;3.00;2.00;;;;;20.17;38.97;101177.25;4931966;28;45231;-73
2022/06/01 11:18:14;;;;;;;;;2.00;2.00;;;;;20.14;39.24;101172.03;4946062;28;45399;-73
2022/06/01 11:21:07;;;;;;;;;3.75;2.75;;;;;20.15;39.28;101167.50;4960918;28;45785;-72
2022/06/01 11:23:52;;;;;;;;;1.50;1.50;;;;;20.23;38.33;101170.59;4953259;28;47229;-73
2022/06/01 11:26:39;;;;;;;;;1.50;1.50;;;;;20.21;38.70;101172.50;4934591;28;45254;-73
2022/06/01 11:29:32;;;;;;;;;1.25;1.25;;;;;20.24;39.15;101166.03;4934419;28;45466;-77
2022/06/01 11:32:10;;;;;;;;;2.00;2.00;;;;;20.22;39.15;101158.00;4946350;28;45300;-76
2022/06/01 11:34:38;;;;;;;;;2.75;1.75;;;;;20.28;38.86;101159.41;4957067;28;46251;-72
2022/06/01 11:37:17;;;;;;;;;2.00;1.75;;;;;20.31;39.30;101161.91;4945773;28;45851;-75
2022/06/01 11:40:11;;;;;;;;;6.00;6.00;;;;;20.35;38.78;101163.47;4938548;28;45420;-74
2022/06/01 11:42:45;;;;;;;;;1.75;1.75;;;;;20.35;38.48;101164.34;4931759;28;45695;-72
2022/06/01 11:45:19;;;;;;;;;1.50;1.50;;;;;20.42;38.80;101158.50;4938236;28;45893;-74
2022/06/01 11:48:03;;;;;;;;;3.75;2.00;;;;;20.42;38.18;101161.22;4931063;28;45534;-73
2022/06/01 11:50:34;;;;;;;;;1.75;1.75;;;;;20.49;38.76;101159.81;4930566;28;45440;-73
2022/06/01 11:53:07;;;;;;;;;2.00;2.00;;;;;20.51;38.17;101155.16;4938641;28;45580;-76
2022/06/01 11:55:36;;;;;;;;;2.00;2.00;;;;;20.54;38.82;101147.69;4933676;28;47338;-73
2022/06/01 11:58:09;;;;;;;;;1.00;1.00;;;;;20.51;38.76;101139.78;4932120;28;45612;-74
2022/06/01 12:00:51;;;;;;;;;2.00;2.00;;;;;20.60;38.12;101151.84;4940620;28;45541;-70